createdAt,value
2018-09-24T00:00:08.156Z,15.33
2018-09-24T00:01:08.084Z,15.33
2018-09-24T00:02:08.120Z,15.42
2018-09-24T00:03:08.159Z,15.42
2018-09-24T00:04:08.192Z,15.53
2018-09-24T00:05:08.228Z,15.42
2018-09-24T00:06:08.263Z,15.44
2018-09-24T00:07:08.299Z,15.42
2018-09-24T00:08:08.337Z,15.72
2018-09-24T00:09:08.373Z,15.52
2018-09-24T00:10:08.405Z,15.72
2018-09-24T00:11:08.441Z,15.72
2018-09-24T00:12:08.479Z,15.52
2018-09-24T00:13:08.514Z,15.62
2018-09-24T00:14:08.551Z,15.62
2018-09-24T00:15:08.587Z,15.62
2018-09-24T00:16:08.626Z,15.63
2018-09-24T00:17:08.658Z,15.62
2018-09-24T00:18:08.694Z,15.72
2018-09-24T00:19:08.730Z,15.72
2018-09-24T00:20:08.770Z,15.62
2018-09-24T00:21:08.806Z,15.62
2018-09-24T00:22:08.836Z,15.62
2018-09-24T00:23:08.873Z,15.42
2018-09-24T00:24:08.909Z,15.42
2018-09-24T00:25:08.944Z,15.52
2018-09-24T00:26:08.980Z,15.52
2018-09-24T00:27:09.018Z,15.52
2018-09-24T00:28:09.053Z,15.42
2018-09-24T00:29:09.087Z,15.42
2018-09-24T00:30:09.124Z,15.52
2018-09-24T00:31:09.160Z,15.52
2018-09-24T00:32:09.195Z,15.33
2018-09-24T00:33:09.232Z,15.34
2018-09-24T00:34:09.270Z,15.33
2018-09-24T00:35:09.303Z,15.33
2018-09-24T00:36:09.340Z,15.33
2018-09-24T00:37:09.374Z,15.44
2018-09-24T00:38:09.409Z,15.44
2018-09-24T00:39:09.446Z,15.42
2018-09-24T00:40:09.487Z,15.33
2018-09-24T00:41:09.522Z,15.62
2018-09-24T00:42:09.553Z,15.52
2018-09-24T00:43:09.591Z,15.62
2018-09-24T00:44:09.626Z,15.52
2018-09-24T00:45:09.663Z,15.72
2018-09-24T00:46:09.700Z,15.72
2018-09-24T00:47:09.734Z,15.81
2018-09-24T00:48:09.771Z,15.52
2018-09-24T00:49:09.804Z,15.81
2018-09-24T00:50:09.842Z,15.72
2018-09-24T00:51:09.879Z,15.72
2018-09-24T00:52:09.913Z,15.72
2018-09-24T00:53:09.954Z,15.42
2018-09-24T00:54:09.989Z,15.72
2018-09-24T00:55:10.020Z,15.62
2018-09-24T00:56:10.057Z,15.72
2018-09-24T00:57:10.093Z,15.72
2018-09-24T00:58:10.127Z,15.72
2018-09-24T00:59:10.164Z,15.92
2018-09-24T01:00:10.201Z,15.81
2018-09-24T01:01:10.241Z,15.81
2018-09-24T01:02:10.271Z,15.81
2018-09-24T01:03:10.309Z,15.72
2018-09-24T01:04:10.347Z,15.81
2018-09-24T01:05:10.387Z,15.91
2018-09-24T01:06:10.416Z,15.81
2018-09-24T01:07:10.451Z,15.42
2018-09-24T01:08:10.494Z,15.72
2018-09-24T01:09:10.522Z,15.72
2018-09-24T01:10:10.558Z,15.72
2018-09-24T01:11:10.599Z,15.92
2018-09-24T01:12:10.629Z,15.53
2018-09-24T01:13:10.666Z,15.81
2018-09-24T01:14:10.705Z,15.72
2018-09-24T01:15:10.740Z,15.62
2018-09-24T01:16:10.774Z,15.82
2018-09-24T01:17:10.813Z,15.72
2018-09-24T01:18:10.844Z,15.62
2018-09-24T01:19:10.881Z,15.72
2018-09-24T01:20:10.919Z,15.72
2018-09-24T01:21:10.955Z,15.82
2018-09-24T01:22:10.989Z,15.72
2018-09-24T01:23:11.026Z,15.91
2018-09-24T01:24:11.063Z,15.72
2018-09-24T01:25:11.099Z,15.42
2018-09-24T01:26:11.132Z,15.92
2018-09-24T01:27:11.170Z,15.91
2018-09-24T01:28:11.206Z,15.81
2018-09-24T01:29:11.240Z,16.02
2018-09-24T01:30:11.278Z,15.91
2018-09-24T01:31:11.312Z,16.01
2018-09-24T01:32:11.347Z,16.01
2018-09-24T01:33:11.384Z,16.02
2018-09-24T01:34:11.420Z,16.01
2018-09-24T01:35:11.453Z,15.91
2018-09-24T01:36:11.490Z,15.91
2018-09-24T01:37:11.528Z,15.91
2018-09-24T01:38:11.561Z,15.91
2018-09-24T01:39:11.605Z,15.91
2018-09-24T01:40:11.635Z,16.01
2018-09-24T01:41:11.673Z,15.82
2018-09-24T01:42:11.709Z,15.91
2018-09-24T01:43:11.774Z,15.91
2018-09-24T01:44:11.778Z,15.81
2018-09-24T01:45:11.818Z,15.81
2018-09-24T01:46:11.849Z,15.72
2018-09-24T01:47:11.885Z,15.91
2018-09-24T01:48:11.923Z,15.92
2018-09-24T01:49:11.956Z,15.81
2018-09-24T01:50:11.993Z,15.81
2018-09-24T01:51:12.032Z,15.81
2018-09-24T01:52:12.068Z,15.81
2018-09-24T01:53:12.100Z,15.82
2018-09-24T01:54:12.137Z,15.81
2018-09-24T01:55:12.170Z,15.81
2018-09-24T01:56:12.208Z,15.82
2018-09-24T01:57:12.244Z,15.82
2018-09-24T01:58:12.278Z,15.81
2018-09-24T01:59:12.314Z,15.81
2018-09-24T02:00:12.352Z,15.62
2018-09-24T02:01:12.390Z,15.91
2018-09-24T02:02:12.422Z,15.72
2018-09-24T02:03:12.461Z,15.72
2018-09-24T02:04:12.493Z,15.62
2018-09-24T02:05:12.534Z,15.72
2018-09-24T02:06:12.567Z,15.91
2018-09-24T02:07:12.600Z,15.81
2018-09-24T02:08:12.637Z,15.72
2018-09-24T02:09:12.676Z,15.81
2018-09-24T02:10:12.710Z,15.91
2018-09-24T02:11:12.744Z,15.91
2018-09-24T02:12:12.781Z,15.91
2018-09-24T02:13:12.817Z,15.91
2018-09-24T02:14:12.855Z,16.01
2018-09-24T02:15:12.889Z,16.11
2018-09-24T02:16:12.924Z,16.21
2018-09-24T02:17:12.961Z,16.20
2018-09-24T02:18:12.999Z,16.01
2018-09-24T02:19:13.033Z,16.11
2018-09-24T02:20:13.068Z,16.11
2018-09-24T02:21:13.108Z,16.11
2018-09-24T02:22:13.144Z,16.11
2018-09-24T02:23:13.179Z,16.11
2018-09-24T02:24:13.211Z,16.11
2018-09-24T02:25:13.252Z,16.11
2018-09-24T02:26:13.282Z,16.11
2018-09-24T02:27:13.319Z,15.91
2018-09-24T02:28:13.362Z,16.11
2018-09-24T02:29:13.390Z,16.11
2018-09-24T02:30:13.427Z,16.01
2018-09-24T02:31:13.465Z,16.11
2018-09-24T02:32:13.498Z,16.11
2018-09-24T02:33:13.534Z,16.02
2018-09-24T02:34:13.572Z,15.91
2018-09-24T02:35:13.606Z,15.91
2018-09-24T02:36:13.642Z,15.91
2018-09-24T02:37:13.679Z,15.91
2018-09-24T02:38:13.712Z,15.91
2018-09-24T02:39:13.749Z,15.81
2018-09-24T02:40:13.789Z,15.81
2018-09-24T02:41:13.828Z,15.81
2018-09-24T02:42:13.857Z,15.91
2018-09-24T02:43:13.895Z,15.81
2018-09-24T02:44:13.929Z,15.91
2018-09-24T02:45:13.964Z,15.91
2018-09-24T02:46:14.000Z,15.91
2018-09-24T02:47:14.036Z,15.81
2018-09-24T02:48:14.074Z,15.92
2018-09-24T02:49:14.110Z,15.72
2018-09-24T02:50:14.143Z,15.72
2018-09-24T02:51:14.178Z,15.62
2018-09-24T02:52:14.216Z,15.91
2018-09-24T02:53:14.250Z,15.91
2018-09-24T02:54:14.290Z,15.72
2018-09-24T02:55:14.324Z,15.91
2018-09-24T02:56:14.356Z,15.72
2018-09-24T02:57:14.397Z,15.81
2018-09-24T02:58:14.429Z,15.62
2018-09-24T02:59:14.469Z,15.91
2018-09-24T03:00:14.505Z,15.62
2018-09-24T03:01:14.612Z,15.91
2018-09-24T03:02:14.577Z,15.91
2018-09-24T03:03:14.618Z,15.81
2018-09-24T03:04:14.649Z,15.81
2018-09-24T03:05:14.688Z,15.81
2018-09-24T03:06:14.717Z,15.72
2018-09-24T03:07:14.755Z,15.81
2018-09-24T03:08:14.790Z,15.81
2018-09-24T03:09:14.827Z,15.81
2018-09-24T03:10:14.861Z,15.72
2018-09-24T03:11:14.897Z,15.72
2018-09-24T03:12:14.932Z,15.91
2018-09-24T03:13:14.968Z,15.91
2018-09-24T03:14:15.005Z,15.72
2018-09-24T03:15:15.039Z,15.62
2018-09-24T03:16:15.077Z,15.81
2018-09-24T03:17:15.115Z,15.81
2018-09-24T03:18:15.147Z,16.11
2018-09-24T03:19:15.183Z,15.91
2018-09-24T03:20:15.220Z,16.01
2018-09-24T03:21:15.263Z,16.01
2018-09-24T03:22:15.309Z,16.11
2018-09-24T03:23:15.332Z,16.01
2018-09-24T03:24:15.363Z,16.01
2018-09-24T03:25:15.400Z,16.30
2018-09-24T03:26:15.504Z,16.20
2018-09-24T03:27:15.470Z,16.30
2018-09-24T03:28:15.507Z,16.39
2018-09-24T03:29:15.543Z,16.20
2018-09-24T03:30:15.581Z,16.11
2018-09-24T03:31:15.614Z,16.20
2018-09-24T03:32:15.649Z,16.39
2018-09-24T03:33:15.688Z,16.30
2018-09-24T03:34:15.729Z,16.30
2018-09-24T03:35:15.758Z,16.39
2018-09-24T03:36:15.799Z,16.49
2018-09-24T03:37:15.832Z,16.69
2018-09-24T03:38:15.864Z,16.59
2018-09-24T03:39:15.901Z,16.59
2018-09-24T03:40:15.938Z,16.69
2018-09-24T03:41:15.980Z,16.59
2018-09-24T03:42:16.012Z,16.39
2018-09-24T03:43:16.046Z,16.49
2018-09-24T03:44:16.079Z,16.78
2018-09-24T03:45:16.121Z,16.69
2018-09-24T03:46:16.153Z,16.69
2018-09-24T03:47:16.186Z,16.69
2018-09-24T03:48:16.224Z,16.69
2018-09-24T03:49:16.260Z,16.59
2018-09-24T03:50:16.294Z,16.88
2018-09-24T03:51:16.331Z,16.88
2018-09-24T03:52:16.367Z,16.88
2018-09-24T03:53:16.402Z,16.88
2018-09-24T03:54:16.438Z,16.78
2018-09-24T03:55:16.474Z,16.78
2018-09-24T03:56:16.512Z,16.88
2018-09-24T03:57:16.549Z,16.98
2018-09-24T03:58:16.580Z,16.78
2018-09-24T03:59:16.618Z,16.98
2018-09-24T04:00:16.655Z,16.78
2018-09-24T04:01:16.697Z,16.88
2018-09-24T04:02:16.726Z,16.79
2018-09-24T04:03:16.760Z,16.89
2018-09-24T04:04:16.796Z,16.89
2018-09-24T04:05:16.835Z,16.89
2018-09-24T04:06:16.866Z,16.59
2018-09-24T04:07:16.906Z,16.89
2018-09-24T04:08:16.939Z,16.69
2018-09-24T04:09:16.985Z,16.69
2018-09-24T04:10:17.078Z,16.69
2018-09-24T04:11:17.047Z,16.59
2018-09-24T04:12:17.088Z,16.69
2018-09-24T04:13:17.120Z,16.69
2018-09-24T04:14:17.155Z,16.59
2018-09-24T04:15:17.196Z,16.69
2018-09-24T04:16:17.227Z,16.89
2018-09-24T04:17:17.266Z,16.60
2018-09-24T04:18:17.300Z,16.89
2018-09-24T04:19:17.334Z,16.79
2018-09-24T04:20:17.369Z,16.69
2018-09-24T04:21:18.310Z,16.60
2018-09-24T04:22:17.441Z,16.69
2018-09-24T04:23:17.477Z,16.60
2018-09-24T04:24:17.515Z,16.41
2018-09-24T04:25:17.549Z,16.50
2018-09-24T04:26:17.665Z,16.79
2018-09-24T04:27:17.620Z,16.60
2018-09-24T04:28:17.659Z,16.69
2018-09-24T04:29:17.695Z,16.60
2018-09-24T04:30:17.728Z,16.60
2018-09-24T04:31:17.766Z,16.60
2018-09-24T04:32:17.802Z,16.60
2018-09-24T04:33:17.837Z,16.60
2018-09-24T04:34:17.872Z,16.59
2018-09-24T04:35:17.909Z,16.60
2018-09-24T04:36:17.942Z,16.60
2018-09-24T04:37:17.980Z,16.60
2018-09-24T04:38:18.015Z,16.69
2018-09-24T04:39:18.052Z,16.50
2018-09-24T04:40:18.088Z,16.50
2018-09-24T04:41:18.125Z,16.79
2018-09-24T04:42:18.157Z,16.60
2018-09-24T04:43:18.200Z,16.50
2018-09-24T04:44:18.232Z,16.50
2018-09-24T04:45:18.266Z,16.21
2018-09-24T04:46:18.303Z,16.31
2018-09-24T04:47:18.341Z,16.41
2018-09-24T04:48:18.389Z,16.31
2018-09-24T04:49:18.450Z,16.31
2018-09-24T04:50:18.445Z,16.31
2018-09-24T04:51:18.481Z,16.31
2018-09-24T04:52:18.519Z,16.31
2018-09-24T04:53:18.558Z,16.21
2018-09-24T04:54:18.594Z,16.41
2018-09-24T04:55:18.626Z,16.41
2018-09-24T04:56:18.660Z,16.41
2018-09-24T04:57:18.697Z,16.41
2018-09-24T04:58:18.733Z,16.21
2018-09-24T04:59:18.769Z,16.31
2018-09-24T05:00:18.811Z,16.31
2018-09-24T05:01:18.844Z,16.41
2018-09-24T05:02:18.875Z,16.21
2018-09-24T05:03:18.920Z,16.41
2018-09-24T05:04:18.948Z,16.21
2018-09-24T05:05:18.987Z,16.21
2018-09-24T05:06:19.023Z,16.21
2018-09-24T05:07:19.056Z,16.50
2018-09-24T05:08:19.092Z,16.41
2018-09-24T05:09:19.131Z,16.02
2018-09-24T05:10:19.239Z,15.92
2018-09-24T05:11:19.201Z,15.92
2018-09-24T05:12:19.239Z,16.02
2018-09-24T05:13:19.272Z,16.02
2018-09-24T05:14:19.307Z,16.21
2018-09-24T05:15:19.345Z,16.21
2018-09-24T05:16:19.468Z,16.21
2018-09-24T05:17:19.416Z,16.21
2018-09-24T05:18:19.452Z,16.21
2018-09-24T05:19:19.487Z,16.11
2018-09-24T05:20:19.524Z,16.11
2018-09-24T05:21:19.565Z,16.11
2018-09-24T05:22:19.598Z,16.11
2018-09-24T05:23:19.630Z,16.21
2018-09-24T05:24:19.665Z,16.31
2018-09-24T05:25:19.704Z,16.21
2018-09-24T05:26:19.738Z,16.31
2018-09-24T05:27:19.810Z,16.31
2018-09-24T05:28:19.815Z,16.31
2018-09-24T05:29:19.849Z,16.41
2018-09-24T05:30:19.882Z,16.31
2018-09-24T05:31:19.918Z,16.31
2018-09-24T05:32:19.978Z,16.31
2018-09-24T05:33:19.989Z,16.41
2018-09-24T05:34:20.041Z,16.31
2018-09-24T05:35:20.063Z,16.31
2018-09-24T05:36:20.100Z,16.31
2018-09-24T05:37:20.133Z,16.31
2018-09-24T05:38:20.170Z,16.31
2018-09-24T05:39:20.207Z,16.02
2018-09-24T05:40:20.245Z,16.11
2018-09-24T05:41:20.288Z,16.31
2018-09-24T05:42:20.313Z,16.11
2018-09-24T05:43:20.349Z,16.11
2018-09-24T05:44:20.384Z,16.11
2018-09-24T05:45:20.422Z,16.11
2018-09-24T05:46:20.458Z,16.50
2018-09-24T05:47:20.494Z,16.31
2018-09-24T05:48:20.528Z,16.31
2018-09-24T05:49:20.566Z,16.21
2018-09-24T05:50:20.599Z,16.41
2018-09-24T05:51:20.636Z,16.31
2018-09-24T05:52:20.673Z,16.41
2018-09-24T05:53:20.729Z,16.21
2018-09-24T05:54:20.774Z,16.21
2018-09-24T05:55:20.781Z,16.21
2018-09-24T05:56:20.823Z,16.41
2018-09-24T05:57:20.853Z,16.31
2018-09-24T05:58:20.889Z,16.31
2018-09-24T05:59:20.925Z,16.21
2018-09-24T06:00:20.961Z,16.41
2018-09-24T06:01:21.000Z,16.22
2018-09-24T06:02:21.031Z,16.21
2018-09-24T06:03:21.072Z,16.22
2018-09-24T06:04:21.105Z,16.22
2018-09-24T06:05:21.138Z,16.22
2018-09-24T06:06:21.174Z,16.12
2018-09-24T06:07:21.218Z,16.12
2018-09-24T06:08:21.253Z,16.31
2018-09-24T06:09:21.283Z,16.22
2018-09-24T06:10:21.319Z,16.31
2018-09-24T06:11:21.357Z,16.31
2018-09-24T06:12:21.394Z,16.31
2018-09-24T06:13:21.429Z,16.31
2018-09-24T06:14:21.464Z,16.41
2018-09-24T06:15:21.503Z,16.41
2018-09-24T06:16:21.536Z,16.31
2018-09-24T06:17:21.573Z,16.22
2018-09-24T06:18:21.608Z,16.12
2018-09-24T06:19:21.672Z,16.02
2018-09-24T06:20:21.681Z,16.12
2018-09-24T06:21:21.725Z,16.02
2018-09-24T06:22:21.751Z,16.12
2018-09-24T06:23:21.793Z,16.12
2018-09-24T06:24:21.825Z,16.12
2018-09-24T06:25:21.861Z,16.12
2018-09-24T06:26:21.898Z,16.12
2018-09-24T06:27:21.936Z,16.12
2018-09-24T06:28:22.020Z,16.41
2018-09-24T06:29:22.006Z,16.02
2018-09-24T06:30:22.044Z,16.12
2018-09-24T06:31:22.075Z,16.12
2018-09-24T06:32:22.116Z,16.22
2018-09-24T06:33:22.154Z,16.12
2018-09-24T06:34:22.276Z,16.02
2018-09-24T06:35:22.222Z,16.12
2018-09-24T06:36:22.258Z,16.12
2018-09-24T06:37:22.292Z,16.41
2018-09-24T06:38:22.327Z,16.12
2018-09-24T06:39:22.370Z,16.02
2018-09-24T06:40:22.400Z,16.02
2018-09-24T06:41:22.440Z,16.02
2018-09-24T06:42:22.471Z,16.12
2018-09-24T06:43:22.528Z,16.02
2018-09-24T06:44:22.543Z,16.12
2018-09-24T06:45:22.581Z,15.92
2018-09-24T06:46:22.619Z,15.64
2018-09-24T06:47:22.659Z,15.73
2018-09-24T06:48:22.696Z,15.73
2018-09-24T06:49:22.725Z,15.92
2018-09-24T06:50:22.763Z,15.73
2018-09-24T06:51:22.798Z,15.94
2018-09-24T06:52:22.833Z,15.92
2018-09-24T06:53:22.872Z,15.84
2018-09-24T06:54:22.905Z,15.83
2018-09-24T06:55:22.944Z,15.84
2018-09-24T06:56:22.980Z,15.84
2018-09-24T06:57:23.017Z,15.92
2018-09-24T06:58:23.049Z,16.02
2018-09-24T06:59:23.119Z,16.13
2018-09-24T07:00:23.124Z,16.03
2018-09-24T07:01:23.163Z,16.31
2018-09-24T07:02:23.197Z,16.32
2018-09-24T07:03:23.230Z,16.22
2018-09-24T07:04:23.267Z,16.42
2018-09-24T07:05:23.310Z,16.41
2018-09-24T07:06:23.339Z,16.80
2018-09-24T07:07:23.376Z,16.61
2018-09-24T07:08:23.411Z,16.71
2018-09-24T07:09:23.448Z,16.52
2018-09-24T07:10:23.484Z,16.71
2018-09-24T07:11:23.636Z,16.81
2018-09-24T07:12:23.556Z,16.81
2018-09-24T07:13:23.593Z,16.61
2018-09-24T07:14:23.629Z,16.91
2018-09-24T07:15:23.663Z,16.71
2018-09-24T07:16:23.701Z,16.61
2018-09-24T07:17:23.739Z,16.91
2018-09-24T07:18:23.775Z,16.71
2018-09-24T07:19:23.808Z,16.71
2018-09-24T07:20:23.846Z,16.61
2018-09-24T07:21:23.896Z,16.51
2018-09-24T07:22:23.919Z,16.61
2018-09-24T07:23:23.953Z,16.61
2018-09-24T07:24:23.994Z,16.71
2018-09-24T07:25:24.027Z,16.71
2018-09-24T07:26:24.063Z,16.61
2018-09-24T07:27:24.098Z,16.52
2018-09-24T07:28:24.204Z,16.22
2018-09-24T07:29:24.174Z,16.41
2018-09-24T07:30:24.209Z,16.22
2018-09-24T07:31:24.242Z,16.32
2018-09-24T07:32:24.281Z,15.94
2018-09-24T07:33:24.346Z,16.22
2018-09-24T07:34:24.352Z,16.13
2018-09-24T07:35:24.389Z,16.22
2018-09-24T07:36:24.423Z,16.31
2018-09-24T07:37:24.461Z,16.32
2018-09-24T07:38:24.498Z,16.13
2018-09-24T07:39:24.538Z,16.03
2018-09-24T07:40:24.569Z,16.12
2018-09-24T07:41:25.400Z,16.32
2018-09-24T07:42:24.644Z,16.03
2018-09-24T07:43:24.688Z,15.84
2018-09-24T07:44:24.714Z,16.12
2018-09-24T07:45:24.752Z,15.92
2018-09-24T07:46:24.788Z,15.94
2018-09-24T07:47:24.821Z,15.74
2018-09-24T07:48:24.859Z,15.92
2018-09-24T07:49:24.905Z,15.94
2018-09-24T07:50:24.935Z,15.73
2018-09-24T07:51:24.968Z,15.73
2018-09-24T07:52:25.003Z,15.73
2018-09-24T07:53:25.040Z,15.54
2018-09-24T07:54:25.075Z,15.44
2018-09-24T07:55:25.196Z,15.44
2018-09-24T07:57:55.821Z,15.73
2018-09-24T08:00:47.736Z,15.44
2018-09-24T08:01:47.768Z,15.54
